Time;durP1;ratioP1;P1;durP2;ratioP2;P2;SDS_P1;SDS_P2;PMS_P1;PMS_P2;Temp;Humidity;BMP_temperature;BMP_pressure;BME280_temperature;BME280_humidity;BME280_pressure;Samples;Min_cycle;Max_cycle;Signal;HPM_P1;HPM_P2
2023/05/22 00:01:41;;;;;;;8.27;4.50;;;;;;;14.81;71.51;99196.63;4906053;29;20046;-90
2023/05/22 00:04:07;;;;;;;8.75;5.35;;;;;;;14.72;72.81;99183.00;4922159;29;20023;-89
2023/05/22 00:06:32;;;;;;;6.28;4.88;;;;;;;14.51;73.34;99183.34;4906068;29;20023;-90
2023/05/22 00:08:58;;;;;;;8.48;4.88;;;;;;;14.56;73.24;99190.59;4906209;29;20023;-90
2023/05/22 00:11:24;;;;;;;9.10;5.63;;;;;;;14.67;73.02;99200.16;4921715;29;20033;-90
2023/05/22 00:13:50;;;;;;;8.95;6.32;;;;;;;14.45;73.49;99183.72;4922505;29;20454;-90
2023/05/22 00:16:15;;;;;;;9.38;6.90;;;;;;;14.52;73.96;99203.09;4922117;29;20031;-89
2023/05/22 00:18:41;;;;;;;17.55;9.05;;;;;;;14.30;73.97;99193.72;4905888;29;20027;-89
2023/05/22 00:21:08;;;;;;;12.82;9.07;;;;;;;14.26;74.69;99200.84;4906294;29;20086;-89
2023/05/22 00:23:34;;;;;;;12.32;8.32;;;;;;;14.07;75.04;99198.19;4906531;29;20107;-89
2023/05/22 00:26:00;;;;;;;15.57;8.15;;;;;;;14.02;75.27;99198.25;4923173;29;20026;-90
2023/05/22 00:28:26;;;;;;;11.90;6.53;;;;;;;14.00;75.06;99202.34;4925548;29;20023;-90
2023/05/22 00:30:52;;;;;;;12.20;7.07;;;;;;;13.89;76.01;99191.69;4925473;29;20023;-89
2023/05/22 00:33:17;;;;;;;14.02;7.35;;;;;;;13.79;76.27;99193.75;4925514;29;20031;-89
2023/05/22 00:35:43;;;;;;;9.98;6.70;;;;;;;13.73;76.30;99193.03;4909588;29;20057;-89
2023/05/22 00:38:08;;;;;;;18.67;6.35;;;;;;;13.90;75.68;99198.72;4909264;29;20034;-88
2023/05/22 00:40:34;;;;;;;9.30;6.57;;;;;;;13.88;75.52;99189.28;4909567;29;20027;-88
2023/05/22 00:42:59;;;;;;;11.68;6.72;;;;;;;13.87;76.04;99206.63;4925894;29;20028;-89
2023/05/22 00:45:25;;;;;;;11.00;6.72;;;;;;;13.92;75.61;99196.53;4909306;29;20031;-88
2023/05/22 00:47:51;;;;;;;15.25;6.25;;;;;;;13.72;75.75;99183.31;4925469;29;20042;-89
2023/05/22 00:50:16;;;;;;;8.65;5.40;;;;;;;13.93;75.52;99202.75;4925550;29;20023;-89
2023/05/22 00:52:43;;;;;;;8.70;5.60;;;;;;;13.71;76.16;99197.91;4909750;29;20023;-89
2023/05/22 00:55:09;;;;;;;9.15;5.88;;;;;;;13.74;75.74;99192.72;4909276;29;20477;-88
2023/05/22 00:57:35;;;;;;;12.07;5.47;;;;;;;13.74;76.26;99206.25;4908900;29;20023;-88
2023/05/22 01:00:01;;;;;;;7.68;5.30;;;;;;;13.61;76.55;99169.09;4925297;29;20090;-89
2023/05/22 01:02:27;;;;;;;10.63;6.00;;;;;;;13.63;76.40;99179.66;4941399;29;20470;-90
2023/05/22 01:04:55;;;;;;;10.02;5.50;;;;;;;13.64;76.60;99190.19;4925435;29;20445;-89
2023/05/22 01:07:22;;;;;;;9.82;6.05;;;;;;;13.60;76.73;99183.75;4910310;29;20446;-89
2023/05/22 01:09:48;;;;;;;7.88;5.57;;;;;;;13.61;77.11;99187.25;4908918;29;20031;-89
2023/05/22 01:12:25;;;;;;;11.05;5.85;;;;;;;13.63;76.68;99183.16;4940702;29;20030;-91
2023/05/22 01:15:03;;;;;;;8.35;5.40;;;;;;;13.69;76.79;99198.22;4940994;29;20087;-90
2023/05/22 01:17:39;;;;;;;8.57;5.90;;;;;;;13.49;77.09;99191.22;4940437;29;20035;-88
2023/05/22 01:20:26;;;;;;;16.38;5.53;;;;;;;13.45;77.28;99192.88;4925307;29;20050;-89
2023/05/22 01:23:22;;;;;;;11.00;5.88;;;;;;;13.63;76.92;99206.69;4909108;29;20027;-89
2023/05/22 01:26:15;;;;;;;12.52;5.80;;;;;;;13.59;76.93;99200.25;4957250;29;20064;-89
2023/05/22 01:29:08;;;;;;;11.90;7.22;;;;;;;13.41;77.49;99193.75;4939767;29;20067;-90
2023/05/22 01:31:37;;;;;;;13.27;5.88;;;;;;;13.39;76.98;99185.94;4957035;29;20090;-89
2023/05/22 01:34:03;;;;;;;10.40;6.32;;;;;;;13.33;77.69;99174.38;4924558;29;20042;-89
2023/05/22 01:36:30;;;;;;;9.10;6.28;;;;;;;13.34;77.81;99183.28;4908424;29;20031;-89
2023/05/22 01:38:57;;;;;;;14.07;5.97;;;;;;;13.19;77.93;99159.13;4939397;29;20039;-89
2023/05/22 01:41:23;;;;;;;15.65;6.60;;;;;;;13.21;78.03;99173.16;4909357;29;20055;-90
2023/05/22 01:43:48;;;;;;;8.75;6.18;;;;;;;13.23;77.65;99177.19;4908806;29;20038;-88
2023/05/22 01:46:14;;;;;;;12.55;6.30;;;;;;;13.13;78.04;99180.03;4908341;29;20023;-89
2023/05/22 01:48:39;;;;;;;10.75;6.03;;;;;;;12.99;78.44;99181.81;4907866;29;20023;-89
2023/05/22 01:51:37;;;;;;;10.63;6.00;;;;;;;12.98;78.50;99177.53;4923768;29;20027;-89
2023/05/22 01:54:16;;;;;;;10.07;6.22;;;;;;;13.04;78.51;99171.75;4936246;29;20038;-89
2023/05/22 01:56:47;;;;;;;12.02;6.25;;;;;;;13.07;78.46;99178.47;4941800;29;20482;-90
2023/05/22 01:59:33;;;;;;;13.40;6.75;;;;;;;12.72;79.24;99154.31;4939863;29;20023;-89
2023/05/22 02:02:02;;;;;;;13.35;6.47;;;;;;;12.79;79.24;99178.28;4941891;29;20035;-90
2023/05/22 02:04:28;;;;;;;13.02;7.15;;;;;;;12.72;79.22;99170.53;4908557;29;20171;-90
2023/05/22 02:06:54;;;;;;;13.15;6.88;;;;;;;12.81;79.07;99180.69;4907690;29;20020;-90
2023/05/22 02:09:20;;;;;;;12.38;6.85;;;;;;;12.86;78.50;99184.13;4924335;29;20039;-90
2023/05/22 02:11:45;;;;;;;11.13;6.68;;;;;;;12.84;78.89;99183.59;4907104;29;20027;-90
2023/05/22 02:14:12;;;;;;;14.30;6.03;;;;;;;12.76;79.12;99167.22;4907812;29;20033;-89
2023/05/22 02:16:37;;;;;;;13.02;6.43;;;;;;;12.92;78.88;99203.78;4904473;29;20024;-89
2023/05/22 02:19:06;;;;;;;12.05;6.68;;;;;;;12.88;78.91;99181.13;4889029;29;20417;-90
2023/05/22 02:21:34;;;;;;;13.48;7.28;;;;;;;12.83;78.43;99167.69;4905522;29;20057;-90
2023/05/22 02:24:00;;;;;;;11.40;7.05;;;;;;;12.86;78.84;99184.13;4920160;29;20490;-90
2023/05/22 02:26:26;;;;;;;17.80;7.25;;;;;;;12.83;78.81;99186.63;4904263;29;20034;-90
2023/05/22 02:28:52;;;;;;;16.23;6.55;;;;;;;13.00;78.75;99207.78;4904797;29;20047;-90
2023/05/22 02:31:17;;;;;;;12.48;6.28;;;;;;;12.77;78.80;99180.47;4889085;29;20055;-89
2023/05/22 02:33:43;;;;;;;16.23;6.97;;;;;;;12.85;78.70;99196.03;4919745;29;20035;-90
2023/05/22 02:36:11;;;;;;;12.73;7.13;;;;;;;12.69;78.78;99173.78;4920351;29;20058;-89
2023/05/22 02:38:37;;;;;;;13.70;7.68;;;;;;;12.68;78.89;99191.09;4920185;29;20500;-89
2023/05/22 02:41:02;;;;;;;9.70;7.35;;;;;;;12.67;78.77;99188.69;4904261;29;20024;-90
2023/05/22 02:43:28;;;;;;;13.32;6.88;;;;;;;12.70;78.63;99194.31;4920031;29;20501;-90
2023/05/22 02:45:53;;;;;;;14.00;6.40;;;;;;;12.75;78.55;99198.84;4888668;29;20023;-90
2023/05/22 02:48:19;;;;;;;12.88;6.95;;;;;;;12.67;78.96;99192.16;4892083;29;20031;-89
2023/05/22 02:50:47;;;;;;;10.18;6.05;;;;;;;12.53;79.27;99167.75;4923439;29;20032;-90
2023/05/22 02:53:14;;;;;;;11.70;5.60;;;;;;;12.59;79.18;99182.00;4918754;29;20512;-90
2023/05/22 02:55:40;;;;;;;8.75;5.57;;;;;;;12.56;79.54;99196.09;4904151;29;20020;-89
2023/05/22 02:58:10;;;;;;;11.48;6.22;;;;;;;12.53;79.32;99186.66;4907318;29;20442;-90
2023/05/22 03:00:37;;;;;;;9.60;5.63;;;;;;;12.59;79.25;99187.41;4888838;29;20106;-90
2023/05/22 03:03:06;;;;;;;9.45;5.55;;;;;;;12.64;78.84;99176.56;4919669;29;20032;-90
2023/05/22 03:05:32;;;;;;;9.90;5.65;;;;;;;12.67;77.89;99170.56;4903370;29;20026;-90
2023/05/22 03:07:58;;;;;;;8.13;5.25;;;;;;;12.72;78.67;99181.31;4919557;29;20027;-89
2023/05/22 03:10:23;;;;;;;7.45;5.88;;;;;;;12.79;78.39;99213.41;4905068;29;20058;-89
2023/05/22 03:12:50;;;;;;;12.55;5.82;;;;;;;12.82;78.18;99198.50;4888963;29;20119;-89
2023/05/22 03:15:16;;;;;;;11.77;5.72;;;;;;;12.62;78.75;99184.13;4888298;29;20028;-89
2023/05/22 03:17:42;;;;;;;8.95;5.63;;;;;;;12.79;78.02;99188.28;4904280;29;20024;-90
2023/05/22 03:20:08;;;;;;;6.97;5.22;;;;;;;12.94;77.55;99191.59;4888439;29;20030;-90
2023/05/22 03:22:33;;;;;;;7.90;5.53;;;;;;;12.84;77.95;99186.31;4903889;29;20482;-90
2023/05/22 03:24:59;;;;;;;9.02;6.28;;;;;;;12.81;78.58;99202.31;4887688;29;20027;-89
2023/05/22 03:27:24;;;;;;;14.93;6.57;;;;;;;12.69;78.67;99206.19;4902928;29;20047;-90
2023/05/22 03:29:50;;;;;;;9.50;6.13;;;;;;;12.50;79.19;99176.41;4902859;29;20434;-90
2023/05/22 03:32:16;;;;;;;11.63;6.25;;;;;;;12.48;79.41;99186.69;4918957;29;20031;-90
2023/05/22 03:34:42;;;;;;;14.00;7.05;;;;;;;12.56;78.89;99187.19;4902693;29;20479;-89
2023/05/22 03:37:08;;;;;;;13.48;6.30;;;;;;;12.49;78.84;99174.00;4918942;29;20111;-90
2023/05/22 03:39:34;;;;;;;10.35;6.63;;;;;;;12.51;79.19;99172.63;4903852;29;20062;-92
2023/05/22 03:42:00;;;;;;;10.57;7.00;;;;;;;12.61;78.90;99185.22;4903525;29;20027;-89
2023/05/22 03:44:25;;;;;;;10.52;6.30;;;;;;;12.49;79.01;99165.91;4920187;29;20449;-90
2023/05/22 03:46:51;;;;;;;12.50;6.43;;;;;;;12.48;79.18;99175.91;4896877;29;20102;-90
2023/05/22 03:49:16;;;;;;;73.22;36.88;;;;;;;12.62;79.46;99188.75;4905992;29;20034;-89
2023/05/22 03:51:41;;;;;;;20.80;11.57;;;;;;;12.62;78.73;99169.84;4903007;29;20066;-91
2023/05/22 03:54:07;;;;;;;11.60;6.88;;;;;;;12.77;78.39;99188.56;4919011;29;20038;-89
2023/05/22 03:56:33;;;;;;;10.30;5.93;;;;;;;12.77;78.31;99187.78;4919379;29;20036;-90
2023/05/22 03:58:59;;;;;;;14.10;8.98;;;;;;;13.05;77.46;99192.31;4919193;29;20068;-88
2023/05/22 04:01:24;;;;;;;12.38;6.45;;;;;;;13.05;76.99;99176.09;4904254;29;20035;-88
2023/05/22 04:03:49;;;;;;;10.95;6.43;;;;;;;13.04;76.66;99184.47;4907565;29;20541;-88
2023/05/22 04:06:20;;;;;;;10.25;6.50;;;;;;;13.02;76.72;99176.66;4891130;29;20524;-91
2023/05/22 04:08:49;;;;;;;14.90;5.90;;;;;;;13.16;76.78;99206.50;4924587;29;20031;-91
2023/05/22 04:11:15;;;;;;;17.45;8.10;;;;;;;13.16;76.65;99201.09;4914233;29;20541;-91
2023/05/22 04:13:43;;;;;;;23.60;7.75;;;;;;;13.22;76.37;99199.94;4890876;29;20110;-91
2023/05/22 04:16:09;;;;;;;12.32;6.57;;;;;;;13.38;76.20;99207.84;4912646;29;20410;-92
2023/05/22 04:18:34;;;;;;;12.73;6.93;;;;;;;13.24;76.34;99176.09;4906829;29;20033;-90
2023/05/22 04:21:00;;;;;;;13.32;6.80;;;;;;;13.45;75.73;99190.19;4924508;29;20486;-91
2023/05/22 04:23:25;;;;;;;12.27;7.30;;;;;;;13.49;75.47;99176.88;4909867;29;20070;-90
2023/05/22 04:25:51;;;;;;;10.55;6.80;;;;;;;13.66;75.44;99193.41;4910419;29;20034;-94
2023/05/22 04:28:21;;;;;;;10.57;7.32;;;;;;;13.62;75.04;99197.00;4913056;29;20027;-94
2023/05/22 04:30:47;;;;;;;11.80;7.13;;;;;;;13.77;74.75;99204.06;4914760;29;20454;-95
2023/05/22 04:33:12;;;;;;;11.25;6.72;;;;;;;13.89;73.94;99191.69;4899274;29;20027;-94
2023/05/22 04:35:39;;;;;;;7.72;6.50;;;;;;;14.02;73.50;99202.88;4893350;29;20028;-90
2023/05/22 04:38:05;;;;;;;9.90;6.10;;;;;;;14.18;73.27;99211.56;4935250;29;20486;-91
2023/05/22 04:40:32;;;;;;;12.68;5.82;;;;;;;14.51;72.50;99234.00;4891147;29;20024;-91
2023/05/22 04:42:58;;;;;;;11.18;6.45;;;;;;;14.41;72.19;99197.06;4907922;29;20114;-92
2023/05/22 04:45:24;;;;;;;15.13;6.60;;;;;;;14.58;71.93;99201.94;4907279;29;20075;-90
2023/05/22 04:47:53;;;;;;;21.52;8.57;;;;;;;14.73;71.87;99212.50;4907645;29;20039;-92
2023/05/22 04:50:19;;;;;;;14.60;9.40;;;;;;;14.81;71.75;99204.78;4924520;29;20028;-92
2023/05/22 04:52:46;;;;;;;14.55;8.48;;;;;;;14.86;70.87;99205.47;4914842;29;20043;-91
2023/05/22 04:55:11;;;;;;;13.25;7.97;;;;;;;14.84;70.50;99193.34;4900503;29;20027;-91
2023/05/22 04:57:39;;;;;;;13.65;7.32;;;;;;;15.04;70.23;99211.88;4929492;29;20113;-96
2023/05/22 05:00:17;;;;;;;15.90;9.68;;;;;;;15.41;69.55;99233.66;4941018;29;20027;-95
2023/05/22 05:02:42;;;;;;;13.43;8.27;;;;;;;15.55;69.44;99227.09;4924908;29;20137;-96
2023/05/22 05:05:08;;;;;;;16.65;8.38;;;;;;;15.54;68.49;99198.38;4913590;29;20070;-95
2023/05/22 05:07:37;;;;;;;20.50;9.25;;;;;;;15.79;67.99;99228.78;4912858;29;20027;-95
2023/05/22 05:10:03;;;;;;;13.07;8.65;;;;;;;15.92;67.50;99216.28;4916614;29;20028;-95
2023/05/22 05:12:31;;;;;;;23.13;11.98;;;;;;;15.82;67.64;99217.31;4913052;29;20046;-95
2023/05/22 05:14:57;;;;;;;10.40;7.97;;;;;;;15.98;67.37;99208.78;4923139;29;20031;-95
2023/05/22 05:17:23;;;;;;;13.25;9.13;;;;;;;16.28;66.97;99229.00;4910966;29;20614;-90
2023/05/22 05:19:48;;;;;;;18.40;11.40;;;;;;;16.25;66.57;99210.56;4909367;29;20054;-94
2023/05/22 05:22:14;;;;;;;16.10;7.00;;;;;;;16.30;66.07;99197.66;4893877;29;20035;-94
2023/05/22 05:24:57;;;;;;;17.00;8.98;;;;;;;16.21;66.89;99220.47;4898455;29;20046;-94
2023/05/22 05:27:28;;;;;;;16.63;7.22;;;;;;;16.31;66.80;99206.63;4906529;29;20557;-96
2023/05/22 05:29:53;;;;;;;10.60;6.38;;;;;;;16.10;66.67;99200.91;4933896;29;20055;-95
2023/05/22 05:32:19;;;;;;;8.27;5.93;;;;;;;16.28;66.31;99197.19;4917045;29;20022;-94
2023/05/22 05:34:45;;;;;;;12.45;5.78;;;;;;;16.35;66.50;99203.00;4914911;29;20145;-95
2023/05/22 05:37:10;;;;;;;11.98;6.53;;;;;;;16.41;66.33;99189.25;4915200;29;20042;-94
2023/05/22 05:39:36;;;;;;;18.27;6.50;;;;;;;16.55;65.46;99203.56;4914421;29;20110;-95
2023/05/22 05:42:04;;;;;;;11.55;5.90;;;;;;;16.84;64.43;99196.84;4916661;29;20490;-94
2023/05/22 05:44:30;;;;;;;15.15;6.40;;;;;;;16.68;65.03;99188.28;4916003;29;20031;-95
2023/05/22 05:46:56;;;;;;;13.65;6.20;;;;;;;16.97;64.35;99198.66;4916752;29;20038;-94
2023/05/22 05:49:21;;;;;;;11.88;6.18;;;;;;;17.21;63.64;99213.78;4914449;29;20027;-93
2023/05/22 05:52:01;;;;;;;9.20;5.20;;;;;;;17.24;63.61;99207.69;4914560;29;20038;-92
2023/05/22 05:54:27;;;;;;;15.77;6.40;;;;;;;17.51;62.58;99209.31;4997140;23;20043;-96
2023/05/22 06:00:43;;;;;;;10.40;5.43;;;;;;;17.53;62.57;99202.44;4922718;29;20047;-96
2023/05/22 06:03:09;;;;;;;12.45;7.32;;;;;;;17.72;61.49;99204.06;4904764;29;20036;-96
2023/05/22 06:05:34;;;;;;;8.70;5.82;;;;;;;17.84;61.36;99212.41;4879480;29;20024;-95
2023/05/22 06:08:04;;;;;;;14.38;5.80;;;;;;;17.89;61.96;99220.44;4878315;29;20043;-95
2023/05/22 06:10:40;;;;;;;8.90;5.65;;;;;;;17.80;60.94;99197.00;4878279;29;20024;-96
2023/05/22 06:13:18;;;;;;;8.68;5.60;;;;;;;18.19;60.85;99228.75;4901957;29;20039;-95
2023/05/22 06:15:47;;;;;;;11.80;5.20;;;;;;;18.15;60.51;99214.97;4881153;29;20032;-96
2023/05/22 06:18:45;;;;;;;17.17;5.95;;;;;;;18.09;60.14;99201.84;4883063;29;20048;-96
2023/05/22 06:21:05;;;;;;;8.68;5.15;;;;;;;18.29;59.69;99205.81;4901820;29;20061;-95
2023/05/22 06:29:28;;;;;;;4.45;3.00;;;;;;;18.20;58.89;99202.28;5171876;23;1334265;-96
2023/05/22 06:31:53;;;;;;;4.60;3.03;;;;;;;18.42;57.93;99188.47;5149799;23;20114;-92
2023/05/22 06:34:24;;;;;;;5.03;3.15;;;;;;;18.50;57.87;99200.47;4927721;29;20036;-96
2023/05/22 06:36:50;;;;;;;7.38;3.05;;;;;;;18.12;58.84;99206.66;4913055;29;20042;-93
2023/05/22 06:39:16;;;;;;;5.15;3.13;;;;;;;18.56;57.92;99205.41;4909953;29;20366;-90
2023/05/22 06:41:42;;;;;;;4.15;3.03;;;;;;;18.54;58.57;99218.56;4908445;29;20023;-91
2023/05/22 06:44:07;;;;;;;5.22;3.10;;;;;;;18.72;57.54;99188.53;4923665;29;20431;-90
2023/05/22 06:46:33;;;;;;;5.30;3.40;;;;;;;18.91;57.25;99208.03;4909312;29;20136;-91
2023/05/22 06:48:58;;;;;;;5.07;3.20;;;;;;;18.86;56.79;99212.88;4907625;29;20031;-90
2023/05/22 06:51:24;;;;;;;6.40;3.22;;;;;;;18.85;56.96;99211.28;4922488;29;20035;-91
2023/05/22 06:53:50;;;;;;;3.55;3.00;;;;;;;19.07;55.95;99207.47;4921938;29;20581;-93
2023/05/22 06:56:19;;;;;;;5.93;2.80;;;;;;;18.94;56.29;99206.59;4922708;29;20067;-91
2023/05/22 06:59:01;;;;;;;5.97;3.40;;;;;;;19.19;56.79;99210.31;4926322;28;20038;-96
2023/05/22 07:01:50;;;;;;;5.00;3.60;;;;;;;19.10;56.33;99183.06;5055143;23;20055;-96
2023/05/22 07:04:19;;;;;;;5.28;3.55;;;;;;;19.29;56.59;99204.47;4952388;29;20031;-96
2023/05/22 07:06:55;;;;;;;4.55;3.00;;;;;;;19.44;56.32;99200.34;4923451;29;20018;-96
2023/05/22 07:09:21;;;;;;;14.00;8.77;;;;;;;19.64;55.12;99200.72;4990834;23;20035;-95
2023/05/22 07:11:47;;;;;;;18.75;11.55;;;;;;;19.51;55.48;99200.63;4913733;29;20086;-95
2023/05/22 07:14:33;;;;;;;3.88;3.15;;;;;;;19.57;54.62;99202.03;4903832;29;20032;-96
2023/05/22 07:17:02;;;;;;;14.48;9.70;;;;;;;19.92;53.52;99223.66;4936948;29;20529;-92
2023/05/22 07:19:28;;;;;;;4.50;3.17;;;;;;;20.01;52.58;99212.66;4902830;29;20046;-95
2023/05/22 07:21:57;;;;;;;5.28;3.05;;;;;;;20.25;52.78;99222.06;4903802;29;20043;-94
2023/05/22 07:24:55;;;;;;;4.78;2.90;;;;;;;20.11;51.99;99201.28;4922256;29;20036;-95
2023/05/22 07:27:26;;;;;;;4.15;2.70;;;;;;;20.22;52.86;99220.81;4948280;29;20043;-95
2023/05/22 07:29:59;;;;;;;6.35;2.60;;;;;;;20.31;52.17;99210.56;4920141;29;20055;-96
2023/05/22 07:32:44;;;;;;;4.32;2.88;;;;;;;20.36;51.67;99201.38;4889450;29;20028;-96
2023/05/22 07:35:35;;;;;;;6.50;2.85;;;;;;;20.55;52.38;99226.25;4899995;29;20041;-96
2023/05/22 07:38:16;;;;;;;3.45;2.78;;;;;;;20.32;53.11;99209.44;4906212;29;20040;-94
2023/05/22 07:40:55;;;;;;;6.47;2.92;;;;;;;20.38;52.44;99207.31;4897865;29;20488;-96
2023/05/22 07:43:38;;;;;;;10.15;5.40;;;;;;;20.53;52.33;99203.13;4898275;29;20047;-95
2023/05/22 07:46:17;;;;;;;4.65;3.00;;;;;;;20.66;50.75;99193.03;4899361;29;20592;-96
2023/05/22 07:48:45;;;;;;;5.22;2.80;;;;;;;20.78;50.34;99207.50;4914387;29;20150;-96
2023/05/22 07:54:17;;;;;;;6.43;3.53;;;;;;;21.01;49.67;99212.53;4900341;27;20092;-93
2023/05/22 07:56:44;;;;;;;4.97;3.15;;;;;;;21.03;49.48;99217.69;4906616;29;20036;-93
2023/05/22 07:59:23;;;;;;;8.68;3.40;;;;;;;21.01;49.96;99198.06;4871411;29;20048;-94
2023/05/22 08:01:48;;;;;;;5.95;3.30;;;;;;;21.17;49.16;99197.03;4922897;29;20024;-92
2023/05/22 08:04:14;;;;;;;4.22;2.88;;;;;;;21.20;49.37;99201.00;4896707;29;20047;-92
2023/05/22 08:06:42;;;;;;;6.30;3.45;;;;;;;21.29;48.87;99206.34;4908018;29;20625;-92
2023/05/22 08:09:12;;;;;;;5.80;2.90;;;;;;;21.05;49.79;99205.25;4888183;29;20036;-91
2023/05/22 08:11:40;;;;;;;4.53;3.40;;;;;;;20.87;50.40;99201.13;4908393;29;20079;-91
2023/05/22 08:14:29;;;;;;;7.22;3.20;;;;;;;20.95;49.71;99211.16;4903510;29;20051;-94
2023/05/22 08:17:03;;;;;;;4.53;2.70;;;;;;;20.90;50.31;99212.19;4894872;29;20071;-95
2023/05/22 08:19:29;;;;;;;4.97;2.80;;;;;;;20.90;50.69;99195.00;4895502;29;20535;-96
2023/05/22 08:21:56;;;;;;;5.72;3.05;;;;;;;20.76;50.92;99203.53;4913972;29;20036;-95
2023/05/22 08:24:27;;;;;;;9.75;7.22;;;;;;;20.59;51.14;99177.19;4914287;29;20036;-95
2023/05/22 08:26:53;;;;;;;7.38;3.90;;;;;;;20.74;50.46;99190.19;4896221;29;20025;-94
2023/05/22 08:29:25;;;;;;;4.85;2.85;;;;;;;20.87;50.56;99193.72;4908928;29;20099;-96
2023/05/22 08:31:55;;;;;;;6.85;3.17;;;;;;;20.94;50.37;99190.44;4909941;29;20118;-94
2023/05/22 08:34:21;;;;;;;5.22;3.00;;;;;;;21.06;50.55;99193.13;4891110;29;20479;-93
2023/05/22 08:36:50;;;;;;;5.65;3.00;;;;;;;21.19;50.05;99200.22;4911276;29;20040;-94
2023/05/22 08:39:17;;;;;;;6.40;2.90;;;;;;;21.18;50.26;99187.66;4914025;29;20040;-92
2023/05/22 08:41:46;;;;;;;6.28;2.92;;;;;;;21.43;49.97;99193.13;4909439;29;20032;-95
2023/05/22 08:44:24;;;;;;;5.43;3.15;;;;;;;21.52;50.08;99195.72;4924832;29;20084;-95
2023/05/22 08:46:51;;;;;;;6.05;3.88;;;;;;;21.29;50.06;99176.22;4907442;29;20104;-93
2023/05/22 08:49:59;;;;;;;;;;;;;;;;;;;;;
2023/05/22 08:59:05;;;;;;;4.82;2.80;;;;;;;21.72;50.54;99193.97;4850448;29;20068;-94
2023/05/22 09:01:57;;;;;;;5.63;2.70;;;;;;;21.88;49.23;99196.78;4842468;29;20042;-95
2023/05/22 09:10:23;;;;;;;4.55;2.90;;;;;;;22.27;48.23;99184.19;4906140;29;20096;-94
2023/05/22 09:13:10;;;;;;;3.92;2.72;;;;;;;22.20;47.66;99159.25;4856923;29;20029;-95
2023/05/22 09:15:41;;;;;;;4.90;2.67;;;;;;;22.08;48.04;99173.84;4905539;29;20047;-95
2023/05/22 09:18:06;;;;;;;4.43;2.92;;;;;;;22.05;48.05;99163.56;4874217;29;20048;-94
2023/05/22 09:21:14;;;;;;;5.05;3.00;;;;;;;22.20;47.94;99186.69;4873905;29;20029;-96
2023/05/22 09:23:46;;;;;;;6.55;2.70;;;;;;;21.98;48.08;99172.41;4895218;29;20068;-95
2023/05/22 09:26:22;;;;;;;8.10;2.80;;;;;;;22.17;47.54;99188.19;4891074;29;20041;-95
2023/05/22 09:29:27;;;;;;;4.18;2.45;;;;;;;21.93;47.31;99180.88;4880013;29;20052;-94
2023/05/22 09:31:58;;;;;;;6.60;3.38;;;;;;;22.04;48.50;99186.66;4865294;29;20049;-94
2023/05/22 09:34:28;;;;;;;5.68;3.10;;;;;;;21.84;48.78;99191.19;4841683;29;20033;-95
2023/05/22 09:37:03;;;;;;;9.98;3.00;;;;;;;21.66;48.09;99190.66;4874605;29;20061;-96
2023/05/22 09:40:12;;;;;;;4.07;3.00;;;;;;;21.37;49.16;99178.88;4879537;29;20047;-96
2023/05/22 09:42:43;;;;;;;6.07;3.20;;;;;;;21.48;49.36;99192.91;4895265;29;20055;-95
2023/05/22 09:48:04;;;;;;;5.55;2.97;;;;;;;21.56;48.43;99172.78;4887338;29;20055;-95
2023/05/22 09:50:43;;;;;;;3.78;2.95;;;;;;;21.37;48.35;99161.59;4901560;29;20043;-95
2023/05/22 09:53:24;;;;;;;;;;;;;;;;;;;;;
2023/05/22 09:55:50;;;;;;;9.98;2.50;;;;;;;21.64;47.83;99164.78;4902731;29;20107;-96
2023/05/22 09:58:28;;;;;;;3.60;2.28;;;;;;;21.64;47.16;99157.34;4900508;29;20043;-96
2023/05/22 10:01:17;;;;;;;5.50;3.08;;;;;;;21.84;46.90;99152.81;4905418;29;20036;-94
2023/05/22 10:03:51;;;;;;;5.47;2.50;;;;;;;22.05;45.06;99154.56;4934706;29;20103;-95
2023/05/22 10:06:52;;;;;;;9.63;2.55;;;;;;;22.20;45.36;99168.31;4917371;29;20024;-96
2023/05/22 10:09:30;;;;;;;;;;;;;;;;;;;;;
2023/05/22 10:11:56;;;;;;;3.38;2.50;;;;;;;22.68;44.50;99171.13;4910512;29;20087;-93
2023/05/22 10:14:27;;;;;;;4.43;3.13;;;;;;;22.73;46.16;99143.38;4907928;29;20073;-96
2023/05/22 10:17:18;;;;;;;;;;;;;;;;;;;;;
2023/05/22 10:19:49;;;;;;;4.32;2.55;;;;;;;22.71;44.99;99142.16;4893784;29;20072;-93
2023/05/22 10:22:20;;;;;;;3.72;2.60;;;;;;;22.74;44.77;99147.75;4875389;29;20040;-96
2023/05/22 10:24:46;;;;;;;12.07;4.35;;;;;;;22.72;45.26;99143.72;4861432;29;20045;-95
2023/05/22 10:27:18;;;;;;;6.18;2.55;;;;;;;23.03;44.66;99133.91;4827186;29;20094;-94
2023/05/22 10:30:01;;;;;;;6.60;2.63;;;;;;;23.18;44.13;99127.59;4844095;29;20046;-95
2023/05/22 10:32:35;;;;;;;6.47;2.40;;;;;;;23.56;43.07;99140.53;4847710;29;20041;-96
2023/05/22 10:35:14;;;;;;;3.58;2.28;;;;;;;23.63;41.83;99167.38;4842685;29;20049;-95
2023/05/22 10:38:16;;;;;;;4.47;2.75;;;;;;;23.73;42.68;99158.56;4856948;29;20028;-96
2023/05/22 10:41:17;;;;;;;6.65;2.70;;;;;;;23.93;41.99;99142.88;4819151;29;20046;-95
2023/05/22 10:44:02;;;;;;;7.10;4.50;;;;;;;23.91;41.85;99119.66;4857405;29;20150;-96
2023/05/22 10:49:30;;;;;;;5.70;2.45;;;;;;;24.25;41.14;99131.66;5060940;23;20099;-96
2023/05/22 10:52:25;;;;;;;;;;;;;;;;;;;;;
2023/05/22 11:11:40;;;;;;;18.73;14.00;;;;;;;23.36;42.87;99078.50;4942978;29;20046;-93
2023/05/22 11:14:26;;;;;;;7.68;5.18;;;;;;;23.30;43.59;99083.47;4896029;29;20035;-95
2023/05/22 11:16:58;;;;;;;7.22;2.78;;;;;;;23.38;42.50;99098.16;4913548;29;20124;-95
2023/05/22 11:19:29;;;;;;;3.65;2.13;;;;;;;23.29;42.01;99092.09;4931066;29;20181;-96
2023/05/22 11:22:02;;;;;;;8.15;5.30;;;;;;;23.07;42.66;99075.13;4913401;29;20051;-96
2023/05/22 11:35:50;;;;;;;;;;;;;;;;;;;;;
2023/05/22 11:38:35;;;;;;;6.43;2.92;;;;;;;23.40;43.40;99044.44;4949583;29;20028;-96
2023/05/22 11:41:14;;;;;;;9.95;3.28;;;;;;;23.62;43.46;99055.06;4907183;29;20129;-95
2023/05/22 11:44:00;;;;;;;4.50;2.88;;;;;;;23.52;43.59;99034.44;4900604;29;20014;-95
2023/05/22 11:46:29;;;;;;;4.43;2.42;;;;;;;23.51;42.07;99030.91;4931899;29;20031;-96
2023/05/22 11:48:55;;;;;;;7.40;2.60;;;;;;;23.73;41.62;99040.34;4910251;29;20044;-95
2023/05/22 11:51:58;;;;;;;;;;;;;;;;;;;;;
2023/05/22 11:54:44;;;;;;;;;;;;;;;;;;;;;
2023/05/22 11:57:34;;;;;;;4.63;2.10;;;;;;;23.96;41.53;99026.63;4843484;29;20105;-96
2023/05/22 12:00:46;;;;;;;;;;;;;;;;;;;;;
2023/05/22 12:03:26;;;;;;;4.25;2.40;;;;;;;24.28;41.74;99031.88;4791667;30;20133;-96
2023/05/22 12:06:08;;;;;;;7.43;2.30;;;;;;;24.24;40.97;99024.72;4813591;29;20062;-95
2023/05/22 12:08:41;;;;;;;6.28;3.45;;;;;;;23.95;41.36;99005.81;4793453;29;20035;-95
2023/05/22 12:11:28;;;;;;;5.05;2.47;;;;;;;24.12;41.56;99012.75;4815595;29;20433;-95
2023/05/22 12:14:06;;;;;;;7.22;2.63;;;;;;;24.14;41.48;99021.44;4853805;29;20045;-93
2023/05/22 12:17:05;;;;;;;7.60;3.70;;;;;;;24.28;41.83;99004.38;4820915;29;20044;-93
2023/05/22 12:19:38;;;;;;;5.18;3.00;;;;;;;24.58;41.04;99009.16;4839794;29;20223;-91
2023/05/22 12:22:07;;;;;;;6.22;2.85;;;;;;;25.04;39.83;99000.72;4812166;29;20548;-91
2023/05/22 12:24:40;;;;;;;12.07;2.50;;;;;;;24.86;40.64;98983.97;4854395;29;20035;-93
2023/05/22 12:27:15;;;;;;;3.40;2.58;;;;;;;24.98;41.25;99003.00;4889587;29;20028;-94
2023/05/22 12:29:41;;;;;;;4.25;2.40;;;;;;;24.52;41.90;98970.13;4896649;29;20483;-90
2023/05/22 12:32:08;;;;;;;9.48;2.88;;;;;;;24.90;41.40;98981.25;4910603;29;20100;-91
2023/05/22 12:34:34;;;;;;;3.65;2.83;;;;;;;25.08;41.80;98974.00;4906751;29;20027;-89
2023/05/22 12:37:00;;;;;;;4.40;2.50;;;;;;;25.28;40.30;98958.13;4918704;29;20479;-92
2023/05/22 12:39:37;;;;;;;6.22;2.28;;;;;;;25.51;40.59;98969.00;4923216;29;20038;-91
2023/05/22 12:42:07;;;;;;;10.40;3.97;;;;;;;25.76;39.59;98949.91;4923606;29;20110;-92
2023/05/22 12:44:37;;;;;;;5.00;2.95;;;;;;;25.93;38.23;98972.53;4904736;29;20024;-89
2023/05/22 12:47:06;;;;;;;5.32;2.75;;;;;;;26.03;38.64;98963.56;4927007;29;20032;-94
2023/05/22 12:49:31;;;;;;;4.38;2.42;;;;;;;25.87;38.67;98966.53;4892509;29;20155;-91
2023/05/22 12:52:04;;;;;;;5.60;2.85;;;;;;;25.25;40.72;98978.16;4907193;29;20067;-92
2023/05/22 12:54:32;;;;;;;6.03;2.80;;;;;;;24.85;41.69;98973.34;4907252;29;20031;-90
2023/05/22 12:57:01;;;;;;;16.20;3.65;;;;;;;24.65;45.93;98995.47;4893156;29;20031;-92
2023/05/22 12:59:26;;;;;;;6.07;3.22;;;;;;;24.49;46.16;99008.63;4908586;29;20425;-92
2023/05/22 13:01:52;;;;;;;5.05;3.60;;;;;;;24.10;47.12;99006.84;4940873;29;20032;-90